Time;durP1;ratioP1;P1;durP2;ratioP2;P2;SDS_P1;SDS_P2;PMS_P1;PMS_P2;Temp;Humidity;BMP_temperature;BMP_pressure;BME280_temperature;BME280_humidity;BME280_pressure;Samples;Min_cycle;Max_cycle;Signal;HPM_P1;HPM_P2
2022/07/30 00:00:08;;;;;;;;;;;21.10;66.90;;;;;;1989760;28;19914;-66
2022/07/30 00:01:07;;;;;;;;;;;21.10;66.90;;;;;;1997470;28;19945;-66
2022/07/30 00:02:05;;;;;;;;;;;21.10;67.00;;;;;;1989815;28;19909;-65
2022/07/30 00:03:05;;;;;;;;;;;21.10;67.00;;;;;;1989795;28;19910;-65
2022/07/30 00:04:04;;;;;;;;;;;21.10;67.10;;;;;;1997713;28;19905;-65
2022/07/30 00:05:03;;;;;;;;;;;21.10;67.00;;;;;;1998090;28;20265;-65
2022/07/30 00:06:02;;;;;;;;;;;21.10;66.90;;;;;;1998022;28;19913;-65
2022/07/30 00:07:02;;;;;;;;;;;21.10;66.90;;;;;;1998224;28;19905;-65
2022/07/30 00:08:01;;;;;;;;;;;21.10;67.00;;;;;;1998193;28;19909;-65
2022/07/30 00:08:59;;;;;;;;;;;21.10;67.00;;;;;;1997967;28;19906;-65
2022/07/30 00:09:58;;;;;;;;;;;21.10;67.10;;;;;;1998033;28;20353;-65
2022/07/30 00:10:56;;;;;;;;;;;21.10;67.10;;;;;;1997535;28;19954;-65
2022/07/30 00:11:55;;;;;;;;;;;21.10;67.10;;;;;;1997850;28;19906;-66
2022/07/30 00:12:53;;;;;;;;;;;21.10;67.00;;;;;;1998089;28;20304;-66
2022/07/30 00:13:52;;;;;;;;;;;21.10;67.00;;;;;;1997799;28;20004;-66
2022/07/30 00:14:50;;;;;;;;;;;21.10;67.00;;;;;;1997964;28;20388;-68
2022/07/30 00:15:49;;;;;;;;;;;21.10;67.10;;;;;;1998029;28;19913;-65
2022/07/30 00:16:47;;;;;;;;;;;21.10;67.00;;;;;;1997873;28;19913;-65
2022/07/30 00:17:46;;;;;;;;;;;21.10;66.90;;;;;;1998088;28;20376;-67
2022/07/30 00:18:44;;;;;;;;;;;21.10;67.00;;;;;;1998025;28;19956;-67
2022/07/30 00:19:43;;;;;;;;;;;21.00;67.00;;;;;;1997993;28;19912;-66
2022/07/30 00:20:41;;;;;;;;;;;21.10;67.10;;;;;;1997876;28;19960;-67
2022/07/30 00:21:40;;;;;;;;;;;21.10;67.10;;;;;;1998092;28;19905;-67
2022/07/30 00:22:38;;;;;;;;;;;21.10;67.10;;;;;;1997940;28;19913;-67
2022/07/30 00:23:36;;;;;;;;;;;21.10;67.10;;;;;;1998144;28;19905;-67
2022/07/30 00:24:35;;;;;;;;;;;21.10;67.10;;;;;;1997900;28;19906;-67
2022/07/30 00:25:34;;;;;;;;;;;21.10;67.10;;;;;;1997925;28;19909;-66
2022/07/30 00:26:32;;;;;;;;;;;21.00;67.00;;;;;;1997766;28;19906;-66
2022/07/30 00:27:33;;;;;;;;;;;21.10;67.10;;;;;;1997985;28;20064;-66
2022/07/30 00:28:32;;;;;;;;;;;21.10;67.10;;;;;;1989680;28;19981;-66
2022/07/30 00:29:31;;;;;;;;;;;21.00;67.00;;;;;;1989862;28;19910;-66
2022/07/30 00:30:29;;;;;;;;;;;21.10;67.20;;;;;;1997533;28;19906;-66
2022/07/30 00:31:28;;;;;;;;;;;21.10;67.20;;;;;;1998219;28;19964;-67
2022/07/30 00:32:26;;;;;;;;;;;21.10;67.20;;;;;;1998156;28;19910;-66
2022/07/30 00:33:24;;;;;;;;;;;21.10;67.20;;;;;;1998432;28;19913;-67
2022/07/30 00:34:23;;;;;;;;;;;21.10;67.20;;;;;;1998176;28;20258;-67
2022/07/30 00:35:22;;;;;;;;;;;21.10;67.20;;;;;;1998171;28;19906;-67
2022/07/30 00:36:20;;;;;;;;;;;21.00;67.10;;;;;;1998223;28;19906;-67
2022/07/30 00:37:19;;;;;;;;;;;21.00;67.20;;;;;;1998073;28;19906;-67
2022/07/30 00:38:17;;;;;;;;;;;21.10;67.20;;;;;;1998135;28;19993;-67
2022/07/30 00:39:16;;;;;;;;;;;21.00;67.20;;;;;;1997998;28;19910;-67
2022/07/30 00:40:14;;;;;;;;;;;21.10;67.30;;;;;;1998060;28;20277;-67
2022/07/30 00:41:13;;;;;;;;;;;21.00;67.20;;;;;;1998086;28;19906;-66
2022/07/30 00:42:11;;;;;;;;;;;21.00;67.20;;;;;;1997898;28;19906;-67
2022/07/30 00:43:14;;;;;;;;;;;21.00;67.20;;;;;;1997874;28;19992;-66
2022/07/30 00:44:12;;;;;;;;;;;21.00;67.20;;;;;;1997718;28;19905;-65
2022/07/30 00:45:12;;;;;;;;;;;21.00;67.20;;;;;;1989293;28;20278;-67
2022/07/30 00:46:10;;;;;;;;;;;21.10;67.30;;;;;;1989422;28;19914;-67
2022/07/30 00:47:09;;;;;;;;;;;21.10;67.30;;;;;;1997376;28;19905;-68
2022/07/30 00:48:07;;;;;;;;;;;21.10;67.30;;;;;;1997691;28;20272;-66
2022/07/30 00:49:06;;;;;;;;;;;21.00;67.30;;;;;;1997807;28;19910;-67
2022/07/30 00:50:06;;;;;;;;;;;21.00;67.20;;;;;;1997711;28;19996;-66
2022/07/30 00:51:04;;;;;;;;;;;21.00;67.20;;;;;;1997704;28;20296;-67
2022/07/30 00:52:03;;;;;;;;;;;21.10;67.30;;;;;;1997768;28;19906;-66
2022/07/30 00:53:02;;;;;;;;;;;21.10;67.40;;;;;;1997636;28;19906;-66
2022/07/30 00:54:00;;;;;;;;;;;21.00;67.30;;;;;;1997677;28;19956;-66
2022/07/30 00:54:59;;;;;;;;;;;21.00;67.40;;;;;;1997465;28;19910;-66
2022/07/30 00:55:58;;;;;;;;;;;21.10;67.40;;;;;;1997680;28;19906;-66
2022/07/30 00:56:56;;;;;;;;;;;21.10;67.40;;;;;;1997670;28;19910;-66
2022/07/30 00:57:55;;;;;;;;;;;21.10;67.40;;;;;;1997594;28;20047;-66
2022/07/30 00:58:53;;;;;;;;;;;21.00;67.30;;;;;;1997672;28;19912;-66
2022/07/30 00:59:52;;;;;;;;;;;21.10;67.40;;;;;;1997633;28;19905;-67
2022/07/30 01:00:51;;;;;;;;;;;21.10;67.40;;;;;;1997537;28;19957;-66
2022/07/30 01:01:50;;;;;;;;;;;21.10;67.40;;;;;;1989132;28;19969;-66
2022/07/30 01:02:48;;;;;;;;;;;21.00;67.30;;;;;;1989466;28;19913;-66
2022/07/30 01:03:48;;;;;;;;;;;21.00;67.30;;;;;;1997121;28;20025;-66
2022/07/30 01:04:47;;;;;;;;;;;21.10;67.40;;;;;;1989126;28;19913;-66
2022/07/30 01:05:45;;;;;;;;;;;21.10;67.40;;;;;;1989296;28;19906;-65
2022/07/30 01:06:44;;;;;;;;;;;21.10;67.40;;;;;;1996973;28;19906;-66
2022/07/30 01:07:42;;;;;;;;;;;21.00;67.30;;;;;;1997501;28;19906;-66
2022/07/30 01:08:42;;;;;;;;;;;21.00;67.30;;;;;;1997544;28;19968;-66
2022/07/30 01:09:40;;;;;;;;;;;21.00;67.30;;;;;;1989047;28;19910;-66
2022/07/30 01:10:39;;;;;;;;;;;21.00;67.40;;;;;;1989117;28;19906;-66
2022/07/30 01:11:38;;;;;;;;;;;21.00;67.40;;;;;;1996900;28;19913;-66
2022/07/30 01:12:37;;;;;;;;;;;21.00;67.40;;;;;;1997582;28;19910;-67
2022/07/30 01:13:36;;;;;;;;;;;21.00;68.00;;;;;;1997350;28;19914;-66
2022/07/30 01:14:36;;;;;;;;;;;21.00;67.40;;;;;;1997499;28;19905;-66
2022/07/30 01:15:35;;;;;;;;;;;21.00;67.40;;;;;;1997497;28;20001;-66
2022/07/30 01:16:37;;;;;;;;;;;21.00;67.40;;;;;;1997408;28;20317;-66
2022/07/30 01:17:37;;;;;;;;;;;21.10;67.50;;;;;;1997493;28;19933;-66
2022/07/30 01:19:57;;;;;;;;;;;21.00;67.40;;;;;;1997591;28;20004;-66
2022/07/30 01:21:08;;;;;;;;;;;21.10;67.50;;;;;;1997401;28;19910;-66
2022/07/30 01:22:13;;;;;;;;;;;21.00;67.50;;;;;;1997663;28;19916;-66
2022/07/30 01:23:16;;;;;;;;;;;21.00;67.40;;;;;;1997493;28;19932;-66
2022/07/30 01:24:15;;;;;;;;;;;21.00;67.40;;;;;;1997401;28;19905;-66
2022/07/30 01:25:26;;;;;;;;;;;21.00;67.40;;;;;;1997422;28;20425;-66
2022/07/30 01:26:25;;;;;;;;;;;21.00;67.40;;;;;;1997565;28;19905;-67
2022/07/30 01:27:25;;;;;;;;;;;21.00;67.40;;;;;;1997500;28;19930;-67
2022/07/30 01:28:25;;;;;;;;;;;21.00;67.40;;;;;;1997508;28;19905;-67
2022/07/30 01:29:26;;;;;;;;;;;21.00;67.50;;;;;;1997394;28;19910;-67
2022/07/30 01:30:27;;;;;;;;;;;21.00;67.50;;;;;;1997486;28;20306;-66
2022/07/30 01:31:25;;;;;;;;;;;21.00;67.50;;;;;;1997379;28;19948;-66
2022/07/30 01:32:25;;;;;;;;;;;21.00;67.60;;;;;;1997372;28;20313;-66
2022/07/30 01:33:24;;;;;;;;;;;21.00;67.50;;;;;;1997515;28;19906;-66
2022/07/30 01:34:23;;;;;;;;;;;21.00;67.50;;;;;;1997640;28;19906;-66
2022/07/30 01:35:23;;;;;;;;;;;21.00;67.50;;;;;;1997374;28;19985;-65
2022/07/30 01:36:22;;;;;;;;;;;21.00;67.60;;;;;;1997317;28;19928;-66
2022/07/30 01:37:22;;;;;;;;;;;21.00;67.60;;;;;;1997403;28;19943;-66
2022/07/30 01:38:21;;;;;;;;;;;21.00;67.60;;;;;;1997332;28;19953;-67
2022/07/30 01:39:20;;;;;;;;;;;21.00;67.60;;;;;;1997284;28;19912;-66
2022/07/30 01:40:19;;;;;;;;;;;21.00;67.60;;;;;;1997367;28;19913;-66
2022/07/30 01:41:18;;;;;;;;;;;21.00;67.60;;;;;;1997377;28;19941;-66
2022/07/30 01:42:17;;;;;;;;;;;21.00;67.60;;;;;;1997249;28;20048;-67
2022/07/30 01:43:17;;;;;;;;;;;21.00;67.60;;;;;;1997261;28;19938;-66
2022/07/30 01:44:16;;;;;;;;;;;21.00;67.60;;;;;;1997269;28;19906;-66
2022/07/30 01:45:16;;;;;;;;;;;21.00;67.70;;;;;;1997343;28;19906;-66
2022/07/30 01:46:15;;;;;;;;;;;21.00;67.70;;;;;;1997257;28;20309;-66
2022/07/30 01:47:14;;;;;;;;;;;21.00;67.60;;;;;;1997330;28;19906;-66
2022/07/30 01:48:13;;;;;;;;;;;21.00;67.70;;;;;;1997355;28;20346;-65
2022/07/30 01:49:12;;;;;;;;;;;21.00;67.70;;;;;;1997152;28;19972;-65
2022/07/30 01:50:14;;;;;;;;;;;21.00;67.70;;;;;;1997216;28;19956;-66
2022/07/30 01:51:15;;;;;;;;;;;21.00;67.70;;;;;;1997239;28;19905;-66
2022/07/30 01:52:16;;;;;;;;;;;21.00;67.70;;;;;;1997262;28;20257;-66
2022/07/30 01:53:16;;;;;;;;;;;21.00;67.70;;;;;;1997282;28;19906;-65
2022/07/30 01:54:15;;;;;;;;;;;21.00;67.70;;;;;;1997223;28;19909;-66
2022/07/30 01:55:16;;;;;;;;;;;21.00;67.70;;;;;;1997443;28;20257;-66
2022/07/30 01:56:14;;;;;;;;;;;21.00;67.70;;;;;;1997219;28;19906;-66
2022/07/30 01:57:14;;;;;;;;;;;21.00;67.70;;;;;;1997230;28;19913;-66
2022/07/30 01:58:15;;;;;;;;;;;21.00;67.70;;;;;;1997279;28;20237;-67
2022/07/30 01:59:17;;;;;;;;;;;21.00;67.70;;;;;;1997193;28;19994;-66
2022/07/30 02:00:16;;;;;;;;;;;21.00;67.70;;;;;;1997121;28;19996;-66
2022/07/30 02:01:14;;;;;;;;;;;21.00;67.70;;;;;;1997240;28;19906;-66
2022/07/30 02:02:13;;;;;;;;;;;21.00;67.70;;;;;;1988710;28;19906;-66
2022/07/30 02:03:11;;;;;;;;;;;21.00;67.80;;;;;;1988876;28;20009;-66
2022/07/30 02:04:10;;;;;;;;;;;21.00;67.70;;;;;;1996649;28;19941;-66
2022/07/30 02:05:08;;;;;;;;;;;21.00;67.80;;;;;;1997138;28;20035;-66
2022/07/30 02:06:09;;;;;;;;;;;21.00;67.80;;;;;;1997243;28;20258;-67
2022/07/30 02:07:15;;;;;;;;;;;21.00;67.80;;;;;;1997270;28;20308;-66
2022/07/30 02:08:15;;;;;;;;;;;21.00;67.80;;;;;;1997132;28;19906;-66
2022/07/30 02:09:16;;;;;;;;;;;21.00;67.80;;;;;;1997212;28;19906;-66
2022/07/30 02:10:22;;;;;;;;;;;21.00;67.80;;;;;;1997038;28;19906;-66
2022/07/30 02:12:56;;;;;;;;;;;21.00;67.80;;;;;;1997292;28;19914;-66
2022/07/30 02:13:56;;;;;;;;;;;21.00;68.00;;;;;;1996927;28;19925;-66
2022/07/30 02:15:29;;;;;;;;;;;21.00;68.00;;;;;;1997048;28;19905;-66
2022/07/30 02:16:30;;;;;;;;;;;21.00;68.00;;;;;;1980789;29;19910;-66
2022/07/30 02:17:30;;;;;;;;;;;21.00;67.90;;;;;;1992129;28;19905;-66
2022/07/30 02:18:48;;;;;;;;;;;21.00;67.90;;;;;;1997145;28;19913;-66
2022/07/30 02:19:48;;;;;;;;;;;21.00;67.80;;;;;;1997132;28;19924;-65
2022/07/30 02:20:49;;;;;;;;;;;21.00;67.90;;;;;;1997026;28;19952;-65
2022/07/30 02:21:51;;;;;;;;;;;21.00;68.00;;;;;;1997078;28;19906;-66
2022/07/30 02:22:51;;;;;;;;;;;21.00;67.90;;;;;;1997112;28;20361;-66
2022/07/30 02:23:50;;;;;;;;;;;21.00;68.00;;;;;;1988618;28;19957;-66
2022/07/30 02:24:50;;;;;;;;;;;21.00;68.00;;;;;;1988768;28;20006;-66
2022/07/30 02:25:50;;;;;;;;;;;21.00;68.00;;;;;;1996815;28;19906;-66
2022/07/30 02:26:50;;;;;;;;;;;21.00;68.00;;;;;;1997174;28;19912;-66
2022/07/30 02:27:51;;;;;;;;;;;21.00;68.00;;;;;;1997145;28;19956;-66
2022/07/30 02:28:51;;;;;;;;;;;21.00;68.00;;;;;;1997094;28;20343;-66
2022/07/30 02:29:50;;;;;;;;;;;21.00;68.00;;;;;;1996909;28;20008;-66
2022/07/30 02:30:57;;;;;;;;;;;21.00;68.00;;;;;;1996898;28;19906;-66
2022/07/30 02:31:56;;;;;;;;;;;21.00;68.00;;;;;;1997058;28;20265;-66
2022/07/30 02:33:00;;;;;;;;;;;21.00;68.00;;;;;;1996941;28;19972;-66
2022/07/30 02:34:01;;;;;;;;;;;21.00;68.00;;;;;;1997443;28;19906;-66
2022/07/30 02:35:04;;;;;;;;;;;21.00;68.00;;;;;;1999440;28;20354;-66
2022/07/30 02:36:04;;;;;;;;;;;21.00;68.00;;;;;;1991357;28;19930;-66
2022/07/30 02:37:03;;;;;;;;;;;21.00;68.00;;;;;;1991352;28;19914;-66
2022/07/30 02:38:02;;;;;;;;;;;21.00;68.00;;;;;;1999604;28;19913;-66
2022/07/30 02:39:01;;;;;;;;;;;21.00;67.90;;;;;;1999743;28;19912;-67
2022/07/30 02:40:00;;;;;;;;;;;21.00;68.00;;;;;;1999572;28;19905;-67
2022/07/30 02:40:59;;;;;;;;;;;21.00;68.00;;;;;;1999502;28;19906;-66
2022/07/30 02:41:58;;;;;;;;;;;21.00;68.00;;;;;;1999572;28;19906;-66
2022/07/30 02:42:58;;;;;;;;;;;21.00;68.00;;;;;;1999629;28;19921;-67
2022/07/30 02:43:57;;;;;;;;;;;21.00;68.00;;;;;;1999535;28;19909;-66
2022/07/30 02:44:57;;;;;;;;;;;21.00;68.00;;;;;;1999738;28;19906;-66
2022/07/30 02:45:56;;;;;;;;;;;21.00;68.00;;;;;;1999592;28;19913;-66
2022/07/30 02:46:56;;;;;;;;;;;21.00;68.00;;;;;;1999617;28;19906;-66
2022/07/30 02:47:57;;;;;;;;;;;21.00;68.70;;;;;;1999557;28;19913;-66
2022/07/30 02:48:56;;;;;;;;;;;21.00;68.00;;;;;;1999584;28;19909;-66
2022/07/30 02:49:56;;;;;;;;;;;21.00;68.00;;;;;;1999516;28;20013;-66
2022/07/30 02:50:55;;;;;;;;;;;21.00;68.00;;;;;;1999509;28;19913;-66
2022/07/30 02:51:54;;;;;;;;;;;21.00;68.00;;;;;;1999598;28;19905;-67
2022/07/30 02:52:54;;;;;;;;;;;21.00;68.00;;;;;;1999600;28;19906;-67
2022/07/30 02:53:53;;;;;;;;;;;21.00;68.10;;;;;;1999653;28;20308;-66
2022/07/30 02:54:55;;;;;;;;;;;21.00;68.10;;;;;;1999680;28;19956;-67
2022/07/30 02:55:54;;;;;;;;;;;21.00;68.10;;;;;;1999530;28;19913;-67
2022/07/30 02:56:53;;;;;;;;;;;21.00;68.00;;;;;;1999669;28;20376;-67
2022/07/30 02:57:52;;;;;;;;;;;21.00;68.10;;;;;;1999568;28;19906;-67
2022/07/30 02:58:51;;;;;;;;;;;21.00;68.00;;;;;;1999583;28;19913;-67
2022/07/30 02:59:51;;;;;;;;;;;21.00;68.00;;;;;;1999576;28;20273;-67
2022/07/30 03:00:52;;;;;;;;;;;21.00;68.00;;;;;;1999481;28;20012;-67
2022/07/30 03:01:50;;;;;;;;;;;21.00;68.00;;;;;;1999668;28;19905;-67
2022/07/30 03:02:50;;;;;;;;;;;21.00;68.00;;;;;;1999644;28;19906;-67
2022/07/30 03:03:50;;;;;;;;;;;21.00;68.00;;;;;;1983456;29;19910;-67
2022/07/30 03:04:49;;;;;;;;;;;21.00;68.00;;;;;;1983469;28;19957;-67
2022/07/30 03:05:50;;;;;;;;;;;21.00;68.00;;;;;;1999134;28;20052;-67
2022/07/30 03:06:49;;;;;;;;;;;21.00;68.10;;;;;;1999478;28;20294;-67
2022/07/30 03:07:47;;;;;;;;;;;21.00;68.00;;;;;;1999632;28;19909;-67
2022/07/30 03:08:46;;;;;;;;;;;21.00;68.10;;;;;;1999542;28;19910;-67
2022/07/30 03:09:45;;;;;;;;;;;21.00;68.10;;;;;;1991016;28;19914;-67
2022/07/30 03:10:43;;;;;;;;;;;21.00;68.10;;;;;;1991088;28;19906;-67
2022/07/30 03:11:42;;;;;;;;;;;21.00;68.10;;;;;;1999126;28;19912;-67
2022/07/30 03:12:44;;;;;;;;;;;21.00;68.10;;;;;;1999537;28;20276;-67
2022/07/30 03:13:42;;;;;;;;;;;21.00;68.10;;;;;;1999320;28;19913;-67
2022/07/30 03:14:41;;;;;;;;;;;21.00;68.10;;;;;;1999525;28;19913;-67
2022/07/30 03:15:44;;;;;;;;;;;21.00;68.10;;;;;;1999465;28;19906;-67
2022/07/30 03:16:46;;;;;;;;;;;21.00;68.10;;;;;;1999497;28;19906;-67
2022/07/30 03:17:47;;;;;;;;;;;21.00;68.10;;;;;;1999479;28;19913;-67
2022/07/30 03:18:46;;;;;;;;;;;21.00;68.10;;;;;;1999524;28;19906;-67
2022/07/30 03:19:46;;;;;;;;;;;21.00;68.20;;;;;;1999405;28;19951;-67
2022/07/30 03:20:45;;;;;;;;;;;21.00;68.10;;;;;;1999371;28;19984;-67
2022/07/30 03:21:44;;;;;;;;;;;21.00;68.10;;;;;;1999444;28;19941;-67
2022/07/30 03:22:46;;;;;;;;;;;21.00;68.20;;;;;;1999578;28;20304;-67
2022/07/30 03:23:45;;;;;;;;;;;21.00;68.20;;;;;;1999548;28;19909;-67
2022/07/30 03:24:45;;;;;;;;;;;21.00;68.10;;;;;;1999481;28;19913;-67
2022/07/30 03:25:51;;;;;;;;;;;21.00;68.20;;;;;;1999407;28;19960;-67
2022/07/30 03:26:51;;;;;;;;;;;21.00;68.20;;;;;;1999533;28;19956;-68
2022/07/30 03:27:50;;;;;;;;;;;20.90;68.00;;;;;;1999426;28;19906;-66
2022/07/30 03:28:49;;;;;;;;;;;21.00;68.20;;;;;;1999436;28;20358;-66
2022/07/30 03:29:51;;;;;;;;;;;21.00;68.10;;;;;;1999285;28;20403;-66
2022/07/30 03:30:50;;;;;;;;;;;21.00;68.10;;;;;;1999375;28;19992;-65
2022/07/30 03:31:49;;;;;;;;;;;21.00;68.20;;;;;;1999447;28;19957;-67
2022/07/30 03:32:48;;;;;;;;;;;21.00;68.20;;;;;;1999447;28;19953;-66
2022/07/30 03:33:46;;;;;;;;;;;21.00;68.20;;;;;;1999534;28;19906;-66
2022/07/30 03:34:45;;;;;;;;;;;21.00;68.10;;;;;;1999515;28;19906;-65
2022/07/30 03:35:44;;;;;;;;;;;21.00;68.10;;;;;;1999437;28;19948;-65
2022/07/30 03:36:43;;;;;;;;;;;21.00;68.20;;;;;;1999448;28;19905;-66
2022/07/30 03:37:41;;;;;;;;;;;21.00;68.10;;;;;;1999292;28;19905;-66
2022/07/30 03:38:41;;;;;;;;;;;21.00;68.20;;;;;;1999321;28;20066;-66
2022/07/30 03:39:39;;;;;;;;;;;21.00;68.20;;;;;;1999463;28;19912;-68
2022/07/30 03:40:38;;;;;;;;;;;21.00;68.10;;;;;;1999383;28;20357;-67
2022/07/30 03:41:37;;;;;;;;;;;21.00;68.20;;;;;;1999409;28;19917;-66
2022/07/30 03:42:36;;;;;;;;;;;21.00;68.20;;;;;;1999337;28;19905;-66
2022/07/30 03:43:36;;;;;;;;;;;21.00;68.20;;;;;;1999369;28;20008;-66
2022/07/30 03:44:35;;;;;;;;;;;20.90;68.10;;;;;;1999635;28;20265;-66
2022/07/30 03:45:35;;;;;;;;;;;21.00;68.20;;;;;;1998916;28;20044;-66
2022/07/30 03:46:36;;;;;;;;;;;21.00;68.20;;;;;;1997374;28;20265;-66
2022/07/30 03:47:37;;;;;;;;;;;21.00;68.20;;;;;;1998207;28;19912;-66
2022/07/30 03:48:35;;;;;;;;;;;21.00;68.20;;;;;;1998251;28;19906;-66
2022/07/30 03:49:34;;;;;;;;;;;20.90;68.10;;;;;;1998072;28;20177;-66
2022/07/30 03:50:34;;;;;;;;;;;20.90;68.10;;;;;;1998094;28;20003;-66
2022/07/30 03:51:33;;;;;;;;;;;21.00;68.30;;;;;;1998193;28;19906;-66
2022/07/30 03:52:33;;;;;;;;;;;21.00;68.20;;;;;;1998131;28;19957;-66
2022/07/30 03:53:32;;;;;;;;;;;21.00;68.20;;;;;;1998107;28;19906;-66
2022/07/30 03:54:32;;;;;;;;;;;21.00;68.20;;;;;;1998228;28;20330;-66
2022/07/30 03:55:32;;;;;;;;;;;21.00;68.20;;;;;;1997979;28;19912;-66
2022/07/30 03:56:32;;;;;;;;;;;21.00;68.20;;;;;;1998129;28;19949;-66
2022/07/30 03:57:30;;;;;;;;;;;20.90;68.10;;;;;;1998079;28;19953;-66
2022/07/30 03:58:29;;;;;;;;;;;20.90;68.20;;;;;;1989624;28;19910;-65
2022/07/30 03:59:28;;;;;;;;;;;21.00;68.30;;;;;;1989683;28;19990;-66
2022/07/30 04:00:27;;;;;;;;;;;21.00;68.30;;;;;;1997478;28;19916;-66
2022/07/30 04:01:25;;;;;;;;;;;21.00;68.30;;;;;;1998112;28;19925;-66
2022/07/30 04:02:24;;;;;;;;;;;20.90;68.20;;;;;;1998083;28;19913;-66
2022/07/30 04:03:23;;;;;;;;;;;21.00;68.20;;;;;;1998005;28;19905;-66
2022/07/30 04:04:22;;;;;;;;;;;21.00;68.30;;;;;;1998143;28;20423;-66
2022/07/30 04:05:21;;;;;;;;;;;20.90;68.10;;;;;;1998042;28;19999;-66
2022/07/30 04:06:19;;;;;;;;;;;21.00;68.20;;;;;;1998093;28;19952;-65
2022/07/30 04:07:18;;;;;;;;;;;21.00;68.30;;;;;;1998063;28;19909;-66
2022/07/30 04:08:16;;;;;;;;;;;21.00;68.30;;;;;;1997992;28;19910;-67
2022/07/30 04:09:15;;;;;;;;;;;21.00;68.30;;;;;;1997960;28;19912;-66
2022/07/30 04:10:14;;;;;;;;;;;21.00;68.40;;;;;;1997929;28;19995;-66
2022/07/30 04:11:13;;;;;;;;;;;20.90;68.40;;;;;;1998066;28;20342;-66
2022/07/30 04:12:12;;;;;;;;;;;21.00;68.40;;;;;;1998211;28;19913;-66
2022/07/30 04:13:11;;;;;;;;;;;21.00;68.30;;;;;;1997868;28;19906;-66
2022/07/30 04:14:09;;;;;;;;;;;21.00;68.40;;;;;;1997946;28;20270;-66
2022/07/30 04:15:08;;;;;;;;;;;21.00;68.40;;;;;;1998125;28;19956;-66
2022/07/30 04:16:15;;;;;;;;;;;20.90;68.20;;;;;;1998091;28;20330;-66
2022/07/30 04:17:42;;;;;;;;;;;21.00;68.30;;;;;;1997910;28;19910;-66
2022/07/30 04:18:47;;;;;;;;;;;21.00;68.30;;;;;;1988979;28;20034;-66
2022/07/30 04:19:48;;;;;;;;;;;21.00;68.20;;;;;;1997921;28;20241;-65
2022/07/30 04:20:47;;;;;;;;;;;21.00;68.30;;;;;;1997908;28;19977;-66
2022/07/30 04:21:46;;;;;;;;;;;21.00;68.30;;;;;;1997940;28;19906;-67
2022/07/30 04:22:45;;;;;;;;;;;21.00;68.30;;;;;;1997883;28;19924;-67
2022/07/30 04:23:44;;;;;;;;;;;20.90;68.20;;;;;;1997964;28;20358;-67
2022/07/30 04:24:43;;;;;;;;;;;21.00;68.30;;;;;;1997904;28;19906;-66
2022/07/30 04:25:42;;;;;;;;;;;21.00;68.30;;;;;;1997847;28;19906;-67
2022/07/30 04:26:41;;;;;;;;;;;21.00;68.30;;;;;;1997842;28;19980;-67
2022/07/30 04:27:39;;;;;;;;;;;21.00;68.30;;;;;;1997921;28;20004;-66
2022/07/30 04:28:38;;;;;;;;;;;21.00;68.30;;;;;;1997945;28;19905;-66
2022/07/30 04:29:36;;;;;;;;;;;20.80;72.60;;;;;;1997894;28;19914;-68
2022/07/30 04:30:35;;;;;;;;;;;20.40;74.70;;;;;;1998022;28;19906;-67
2022/07/30 04:31:34;;;;;;;;;;;20.20;76.40;;;;;;1998006;28;19910;-67
2022/07/30 04:32:33;;;;;;;;;;;20.00;76.70;;;;;;1997902;28;19905;-66
2022/07/30 04:33:31;;;;;;;;;;;19.90;76.80;;;;;;1997905;28;19905;-68
2022/07/30 04:34:30;;;;;;;;;;;19.90;77.50;;;;;;1998058;28;19906;-67
2022/07/30 04:35:29;;;;;;;;;;;19.80;77.80;;;;;;1997883;28;19906;-67
2022/07/30 04:36:28;;;;;;;;;;;19.70;77.90;;;;;;1997890;28;19917;-67
2022/07/30 04:37:26;;;;;;;;;;;19.60;78.50;;;;;;1997935;28;19912;-67
2022/07/30 04:38:25;;;;;;;;;;;19.60;78.80;;;;;;1998147;28;19910;-66
2022/07/30 04:39:23;;;;;;;;;;;19.50;79.00;;;;;;1997944;28;19952;-67
2022/07/30 04:40:22;;;;;;;;;;;19.60;78.90;;;;;;1997759;28;19906;-67
2022/07/30 04:41:20;;;;;;;;;;;19.60;78.80;;;;;;1998015;28;19912;-67
2022/07/30 04:42:23;;;;;;;;;;;19.50;79.00;;;;;;1997803;28;19956;-67
2022/07/30 04:43:21;;;;;;;;;;;19.40;78.90;;;;;;1997880;28;19905;-67
2022/07/30 04:44:19;;;;;;;;;;;19.50;79.40;;;;;;1997813;28;19948;-67
2022/07/30 04:45:21;;;;;;;;;;;19.40;79.40;;;;;;1997906;28;19996;-67
2022/07/30 04:46:19;;;;;;;;;;;19.40;79.40;;;;;;1997804;28;20372;-67
2022/07/30 04:47:18;;;;;;;;;;;19.30;79.60;;;;;;1997890;28;20020;-66
2022/07/30 04:48:17;;;;;;;;;;;19.30;79.60;;;;;;1997755;28;19909;-66
2022/07/30 04:49:16;;;;;;;;;;;19.30;80.20;;;;;;1997689;28;19906;-66
2022/07/30 04:50:15;;;;;;;;;;;19.30;79.80;;;;;;1997606;28;19905;-66
2022/07/30 04:51:21;;;;;;;;;;;19.20;79.90;;;;;;1997850;28;19906;-66
2022/07/30 04:52:21;;;;;;;;;;;19.40;79.20;;;;;;1997773;28;19906;-66
2022/07/30 04:53:20;;;;;;;;;;;19.50;79.30;;;;;;1997803;28;19951;-67
2022/07/30 04:54:19;;;;;;;;;;;19.50;79.00;;;;;;1997766;28;20349;-67
2022/07/30 04:55:18;;;;;;;;;;;19.50;79.30;;;;;;1997813;28;19977;-67
2022/07/30 04:56:17;;;;;;;;;;;19.40;79.50;;;;;;1997724;28;20361;-67
2022/07/30 04:57:15;;;;;;;;;;;19.30;79.40;;;;;;1997484;28;19945;-67
2022/07/30 04:58:17;;;;;;;;;;;19.30;79.50;;;;;;1997722;28;19910;-67
2022/07/30 04:59:16;;;;;;;;;;;19.40;79.40;;;;;;1997711;28;19906;-67
2022/07/30 05:00:16;;;;;;;;;;;19.40;79.60;;;;;;1997534;28;19905;-67
2022/07/30 05:01:16;;;;;;;;;;;19.30;79.60;;;;;;1997645;28;19906;-67
2022/07/30 05:02:15;;;;;;;;;;;19.30;80.60;;;;;;1997793;28;19905;-67
2022/07/30 05:03:15;;;;;;;;;;;19.30;79.90;;;;;;1996924;28;19905;-67
2022/07/30 05:04:14;;;;;;;;;;;19.20;80.10;;;;;;1997680;28;19905;-68
2022/07/30 05:05:13;;;;;;;;;;;19.20;80.10;;;;;;1997647;28;19906;-66
2022/07/30 05:06:12;;;;;;;;;;;19.20;79.90;;;;;;1997693;28;19951;-66
2022/07/30 05:07:13;;;;;;;;;;;19.20;79.90;;;;;;1997715;28;19906;-67
2022/07/30 05:08:11;;;;;;;;;;;19.20;79.70;;;;;;1997700;28;19951;-67
2022/07/30 05:09:10;;;;;;;;;;;19.20;79.60;;;;;;1997784;28;20120;-69
2022/07/30 05:10:10;;;;;;;;;;;19.20;79.70;;;;;;1989317;28;19981;-67
2022/07/30 05:11:12;;;;;;;;;;;19.10;79.70;;;;;;1989382;28;19906;-67
2022/07/30 05:12:10;;;;;;;;;;;19.10;80.00;;;;;;1997832;28;20246;-67
2022/07/30 05:13:12;;;;;;;;;;;19.20;79.70;;;;;;1997929;28;19960;-67
2022/07/30 05:14:11;;;;;;;;;;;19.20;79.50;;;;;;1997685;28;19924;-66
2022/07/30 05:15:11;;;;;;;;;;;19.20;79.40;;;;;;1997828;28;20272;-67
2022/07/30 05:16:10;;;;;;;;;;;19.20;79.50;;;;;;1997718;28;19912;-66
2022/07/30 05:17:09;;;;;;;;;;;19.10;79.60;;;;;;1997587;28;19905;-68
2022/07/30 05:18:07;;;;;;;;;;;19.10;79.60;;;;;;1997814;28;19913;-67
2022/07/30 05:19:06;;;;;;;;;;;19.10;79.60;;;;;;1997745;28;19906;-66
2022/07/30 05:20:05;;;;;;;;;;;19.20;79.80;;;;;;1997560;28;20284;-67
2022/07/30 05:21:03;;;;;;;;;;;19.10;80.10;;;;;;1989017;28;19943;-67
2022/07/30 05:22:02;;;;;;;;;;;19.10;80.20;;;;;;1989419;28;19913;-66
2022/07/30 05:23:00;;;;;;;;;;;19.00;80.20;;;;;;1997097;28;19906;-68
2022/07/30 05:23:59;;;;;;;;;;;19.10;80.20;;;;;;1997707;28;19906;-67
2022/07/30 05:24:57;;;;;;;;;;;19.20;79.70;;;;;;1997481;28;20328;-66
2022/07/30 05:25:56;;;;;;;;;;;19.30;79.30;;;;;;1997615;28;19948;-68
2022/07/30 05:26:55;;;;;;;;;;;19.30;79.30;;;;;;1997545;28;20326;-67
2022/07/30 05:27:55;;;;;;;;;;;19.30;79.30;;;;;;1997573;28;19905;-68
2022/07/30 05:28:54;;;;;;;;;;;19.20;79.40;;;;;;1997411;28;20358;-68
2022/07/30 05:29:52;;;;;;;;;;;19.30;79.30;;;;;;1997639;28;19909;-67
2022/07/30 05:30:54;;;;;;;;;;;19.30;79.40;;;;;;1997475;28;19905;-68
2022/07/30 05:31:52;;;;;;;;;;;19.30;79.40;;;;;;1997559;28;19910;-67
2022/07/30 05:32:51;;;;;;;;;;;19.30;79.70;;;;;;1997505;28;20215;-68
2022/07/30 05:33:51;;;;;;;;;;;19.30;79.60;;;;;;1997440;28;19906;-66
2022/07/30 05:34:50;;;;;;;;;;;19.20;79.60;;;;;;1997412;28;19906;-68
2022/07/30 05:35:49;;;;;;;;;;;19.30;79.60;;;;;;1997507;28;20308;-67
2022/07/30 05:36:47;;;;;;;;;;;19.20;79.70;;;;;;1997491;28;19910;-67
2022/07/30 05:37:46;;;;;;;;;;;19.20;80.00;;;;;;1997614;28;19912;-68
2022/07/30 05:38:44;;;;;;;;;;;19.10;79.90;;;;;;1997421;28;20316;-67
2022/07/30 05:39:43;;;;;;;;;;;19.10;80.30;;;;;;1997262;28;20282;-67
2022/07/30 05:40:43;;;;;;;;;;;19.00;80.50;;;;;;1997380;28;20361;-67
2022/07/30 05:41:41;;;;;;;;;;;19.00;80.40;;;;;;1997354;28;19906;-67
2022/07/30 05:42:40;;;;;;;;;;;19.00;80.60;;;;;;1989026;28;19906;-67
2022/07/30 05:43:38;;;;;;;;;;;19.00;80.40;;;;;;1989171;28;19905;-67
2022/07/30 05:44:37;;;;;;;;;;;19.00;80.50;;;;;;1996529;28;20000;-68
2022/07/30 05:45:35;;;;;;;;;;;19.00;80.50;;;;;;1997576;28;19906;-67
2022/07/30 05:46:34;;;;;;;;;;;19.10;80.40;;;;;;1997465;28;19914;-67
2022/07/30 05:47:33;;;;;;;;;;;19.00;80.30;;;;;;1997384;28;19913;-67
2022/07/30 05:48:34;;;;;;;;;;;19.00;80.50;;;;;;1997457;28;19913;-67
2022/07/30 05:49:32;;;;;;;;;;;19.00;80.80;;;;;;1997249;28;19914;-67